Time;durP1;ratioP1;P1;durP2;ratioP2;P2;SDS_P1;SDS_P2;PMS_P1;PMS_P2;Temp;Humidity;BMP_temperature;BMP_pressure;BME280_temperature;BME280_humidity;BME280_pressure;Samples;Min_cycle;Max_cycle;Signal;HPM_P1;HPM_P2
2024/01/12 00:02:00;;;;;;;37.53;15.40;;;;;;;-0.51;100.00;103321.94;5049671;28;20031;-76
2024/01/12 00:04:25;;;;;;;33.92;15.57;;;;;;;-0.49;100.00;103333.22;5049440;28;20171;-76
2024/01/12 00:06:50;;;;;;;33.78;15.70;;;;;;;-0.45;100.00;103336.56;5048241;28;20620;-76
2024/01/12 00:09:16;;;;;;;33.35;15.02;;;;;;;-0.45;100.00;103333.94;5048152;28;20666;-76
2024/01/12 00:11:41;;;;;;;36.40;18.80;;;;;;;-0.47;100.00;103339.25;5049346;28;20057;-76
2024/01/12 00:14:07;;;;;;;34.08;16.60;;;;;;;-0.45;100.00;103340.06;5049432;28;20067;-76
2024/01/12 00:16:33;;;;;;;28.98;13.07;;;;;;;-0.48;100.00;103337.53;5048206;28;20071;-76
2024/01/12 00:18:58;;;;;;;32.65;13.15;;;;;;;-0.46;100.00;103342.72;5049432;28;20053;-76
2024/01/12 00:21:23;;;;;;;29.90;13.73;;;;;;;-0.43;100.00;103337.34;5048200;28;20602;-76
2024/01/12 00:23:49;;;;;;;35.88;14.68;;;;;;;-0.43;100.00;103341.75;5047980;28;20068;-76
2024/01/12 00:26:14;;;;;;;31.67;16.50;;;;;;;-0.51;100.00;103334.19;5049529;28;20083;-76
2024/01/12 00:28:40;;;;;;;31.35;14.93;;;;;;;-0.48;100.00;103334.06;5049258;28;20035;-76
2024/01/12 00:31:05;;;;;;;27.90;12.40;;;;;;;-0.53;100.00;103323.75;5049506;28;20070;-76
2024/01/12 00:33:30;;;;;;;33.80;14.15;;;;;;;-0.44;100.00;103338.28;5049383;28;20036;-76
2024/01/12 00:35:56;;;;;;;25.25;12.73;;;;;;;-0.43;100.00;103350.47;5031605;28;20139;-76
2024/01/12 00:38:21;;;;;;;29.45;13.20;;;;;;;-0.43;100.00;103344.38;5049349;28;20119;-76
2024/01/12 00:40:46;;;;;;;30.63;13.63;;;;;;;-0.43;100.00;103347.84;5049695;28;20056;-76
2024/01/12 00:43:12;;;;;;;28.02;13.77;;;;;;;-0.45;100.00;103349.66;5053309;28;20033;-76
2024/01/12 00:45:37;;;;;;;36.63;16.70;;;;;;;-0.47;100.00;103335.78;5053217;28;20125;-76
2024/01/12 00:48:05;;;;;;;28.48;14.20;;;;;;;-0.47;100.00;103335.78;5051816;28;20075;-76
2024/01/12 00:50:30;;;;;;;30.30;15.20;;;;;;;-0.46;100.00;103333.09;5053046;28;20035;-76
2024/01/12 00:52:56;;;;;;;28.27;15.40;;;;;;;-0.50;100.00;103326.28;5051638;28;20029;-76
2024/01/12 00:55:21;;;;;;;28.38;13.60;;;;;;;-0.43;100.00;103337.34;5051695;28;20116;-76
2024/01/12 00:57:46;;;;;;;33.25;15.48;;;;;;;-0.43;100.00;103333.88;5051486;28;20037;-76
2024/01/12 01:00:12;;;;;;;39.65;18.23;;;;;;;-0.47;100.00;103325.31;5052931;28;20068;-76
2024/01/12 01:02:38;;;;;;;31.08;13.73;;;;;;;-0.53;100.00;103318.53;5034914;28;20033;-76
2024/01/12 01:05:04;;;;;;;34.80;14.63;;;;;;;-0.45;100.00;103328.69;5052972;28;20045;-76
2024/01/12 01:07:29;;;;;;;32.53;15.93;;;;;;;-0.41;100.00;103345.16;5052731;28;20124;-76
2024/01/12 01:09:54;;;;;;;37.05;16.00;;;;;;;-0.41;100.00;103343.41;5052635;28;20029;-76
2024/01/12 01:12:20;;;;;;;29.98;15.70;;;;;;;-0.42;100.00;103352.16;5052641;28;20495;-76
2024/01/12 01:14:46;;;;;;;34.25;14.40;;;;;;;-0.48;100.00;103348.03;5052699;28;20047;-76
2024/01/12 01:17:12;;;;;;;31.13;14.63;;;;;;;-0.43;100.00;103355.72;5052562;28;20074;-76
2024/01/12 01:19:38;;;;;;;32.60;16.35;;;;;;;-0.43;100.00;103354.84;5051188;28;20033;-76
2024/01/12 01:22:03;;;;;;;32.20;14.43;;;;;;;-0.42;100.00;103352.16;5052977;28;20246;-76
2024/01/12 01:24:29;;;;;;;32.28;15.95;;;;;;;-0.43;100.00;103347.84;5052482;28;20043;-76
2024/01/12 01:26:55;;;;;;;30.10;16.23;;;;;;;-0.42;100.00;103349.53;5052343;28;20028;-77
2024/01/12 01:29:20;;;;;;;29.48;14.70;;;;;;;-0.41;100.00;103364.38;5051202;28;20110;-76
2024/01/12 01:31:46;;;;;;;30.65;15.52;;;;;;;-0.41;100.00;103380.09;5051055;28;20076;-76
2024/01/12 01:34:11;;;;;;;37.05;13.27;;;;;;;-0.42;100.00;103383.63;5052271;28;20484;-76
2024/01/12 01:36:36;;;;;;;29.48;15.55;;;;;;;-0.41;100.00;103387.13;5052183;28;20052;-76
2024/01/12 01:39:02;;;;;;;28.02;14.05;;;;;;;-0.43;100.00;103391.56;5052278;28;20040;-76
2024/01/12 01:41:27;;;;;;;30.98;13.63;;;;;;;-0.45;100.00;103382.00;5052152;28;20017;-76
2024/01/12 01:43:52;;;;;;;27.00;11.82;;;;;;;-0.45;100.00;103384.63;5050738;28;20040;-76
2024/01/12 01:46:19;;;;;;;30.27;13.45;;;;;;;-0.43;100.00;103391.56;5050763;28;20033;-76
2024/01/12 01:48:45;;;;;;;27.98;14.15;;;;;;;-0.42;100.00;103385.38;5051922;28;20115;-76
2024/01/12 01:51:11;;;;;;;32.55;15.43;;;;;;;-0.42;100.00;103375.75;5050661;28;20223;-76
2024/01/12 01:53:36;;;;;;;35.80;17.75;;;;;;;-0.44;100.00;103369.75;5051961;28;20036;-76
2024/01/12 01:56:03;;;;;;;31.55;14.40;;;;;;;-0.42;100.00;103382.75;5051594;28;20056;-76
2024/01/12 01:58:28;;;;;;;29.73;14.73;;;;;;;-0.42;100.00;103375.75;5051678;28;20119;-76
2024/01/12 02:00:55;;;;;;;30.38;15.00;;;;;;;-0.41;100.00;103372.22;5051814;28;20039;-76
2024/01/12 02:03:21;;;;;;;25.80;13.25;;;;;;;-0.42;100.00;103377.53;5051686;28;20041;-76
2024/01/12 02:05:48;;;;;;;33.22;16.52;;;;;;;-0.47;100.00;103367.25;5051510;28;20128;-76
2024/01/12 02:08:14;;;;;;;30.58;15.93;;;;;;;-0.46;100.00;103367.16;5050305;28;20658;-76
2024/01/12 02:10:39;;;;;;;28.35;14.23;;;;;;;-0.58;100.00;103343.22;5050231;28;20125;-76
2024/01/12 02:13:05;;;;;;;30.55;15.82;;;;;;;-0.46;100.00;103356.69;5051058;28;20159;-76
2024/01/12 02:15:30;;;;;;;28.60;12.73;;;;;;;-0.43;100.00;103357.47;5052210;28;20066;-76
2024/01/12 02:17:56;;;;;;;28.27;13.15;;;;;;;-0.44;100.00;103359.25;5050946;28;20396;-76
2024/01/12 02:20:21;;;;;;;30.20;12.57;;;;;;;-0.46;100.00;103354.06;5051414;28;20044;-76
2024/01/12 02:22:46;;;;;;;25.38;11.63;;;;;;;-0.41;100.00;103355.66;5051344;28;20029;-77
2024/01/12 02:25:14;;;;;;;25.65;13.02;;;;;;;-0.48;100.00;103348.03;5050187;28;20057;-77
2024/01/12 02:27:40;;;;;;;27.50;12.32;;;;;;;-0.42;100.00;103357.41;5051075;28;20107;-77
2024/01/12 02:30:06;;;;;;;32.38;15.57;;;;;;;-0.42;100.00;103352.16;5051294;28;20527;-77
2024/01/12 02:32:31;;;;;;;35.65;15.95;;;;;;;-0.45;100.00;103347.03;5051082;28;20033;-77
2024/01/12 02:34:56;;;;;;;31.15;13.23;;;;;;;-0.46;100.00;103347.97;5051269;28;20107;-77
2024/01/12 02:37:22;;;;;;;28.10;14.23;;;;;;;-0.43;100.00;103352.25;5049879;28;20040;-77
2024/01/12 02:39:47;;;;;;;32.03;13.63;;;;;;;-0.40;100.00;103349.47;5033265;28;20059;-77
2024/01/12 02:42:12;;;;;;;30.63;13.80;;;;;;;-0.41;100.00;103360.91;5033716;28;20029;-76
2024/01/12 02:44:38;;;;;;;32.95;17.05;;;;;;;-0.42;100.00;103349.53;5051111;28;20032;-76
2024/01/12 02:47:04;;;;;;;29.55;13.85;;;;;;;-0.45;100.00;103347.91;5050799;28;20451;-76
2024/01/12 02:49:29;;;;;;;29.85;14.48;;;;;;;-0.44;100.00;103348.78;5049712;28;20567;-76
2024/01/12 02:51:55;;;;;;;33.90;14.38;;;;;;;-0.49;100.00;103337.63;5050710;28;20040;-76
2024/01/12 02:54:21;;;;;;;27.65;12.98;;;;;;;-0.40;100.00;103347.72;5050840;28;20476;-76
2024/01/12 02:56:46;;;;;;;31.13;14.55;;;;;;;-0.40;100.00;103347.72;5050539;28;20104;-76
2024/01/12 02:59:11;;;;;;;32.60;11.88;;;;;;;-0.43;100.00;103347.84;5049323;28;20033;-76
2024/01/12 03:01:37;;;;;;;29.23;13.18;;;;;;;-0.40;100.00;103352.94;5049345;28;20033;-76
2024/01/12 03:04:02;;;;;;;31.23;14.73;;;;;;;-0.41;100.00;103348.63;5049940;28;20136;-76
2024/01/12 03:06:27;;;;;;;26.60;13.73;;;;;;;-0.41;100.00;103342.53;5050635;28;20064;-76
2024/01/12 03:08:53;;;;;;;33.45;15.38;;;;;;;-0.42;100.00;103346.91;5050551;28;20141;-76
2024/01/12 03:11:18;;;;;;;31.38;13.40;;;;;;;-0.42;100.00;103344.28;5050432;28;20481;-76
2024/01/12 03:13:43;;;;;;;26.55;14.60;;;;;;;-0.42;100.00;103340.81;5050469;28;20426;-76
2024/01/12 03:16:19;;;;;;;30.17;14.23;;;;;;;-0.43;100.00;103341.75;5048911;28;20041;-76
2024/01/12 03:18:45;;;;;;;24.92;12.40;;;;;;;-0.44;100.00;103335.66;5050378;28;20040;-76
2024/01/12 03:21:10;;;;;;;24.88;13.43;;;;;;;-0.46;100.00;103333.09;5050048;28;20031;-76
2024/01/12 03:23:35;;;;;;;30.70;15.93;;;;;;;-0.43;100.00;103334.72;5048908;28;20032;-76
2024/01/12 03:26:01;;;;;;;29.02;11.80;;;;;;;-0.43;100.00;103334.72;5050421;28;20119;-77
2024/01/12 03:28:26;;;;;;;31.25;15.20;;;;;;;-0.43;100.00;103337.34;5050118;28;20060;-76
2024/01/12 03:30:51;;;;;;;29.00;13.05;;;;;;;-0.43;100.00;103333.88;5050021;28;20055;-76
2024/01/12 03:33:17;;;;;;;49.45;16.95;;;;;;;-0.43;100.00;103334.72;5049846;28;20033;-76
2024/01/12 03:35:42;;;;;;;31.92;14.65;;;;;;;-0.43;100.00;103324.25;5050007;28;20044;-76
2024/01/12 03:38:11;;;;;;;25.80;13.05;;;;;;;-0.43;100.00;103328.66;5049787;28;20388;-77
2024/01/12 03:40:36;;;;;;;27.80;11.52;;;;;;;-0.41;100.00;103332.06;5049614;28;20971;-76
2024/01/12 03:43:02;;;;;;;33.60;15.02;;;;;;;-0.41;100.00;103326.81;5049930;28;20029;-76
2024/01/12 03:45:27;;;;;;;30.20;15.27;;;;;;;-0.41;100.00;103327.66;5049728;28;20090;-77
2024/01/12 03:47:52;;;;;;;30.67;13.60;;;;;;;-0.40;100.00;103325.88;5048507;28;20098;-76
2024/01/12 03:50:18;;;;;;;29.88;14.85;;;;;;;-0.40;100.00;103328.50;5049691;28;20035;-77
2024/01/12 03:52:43;;;;;;;36.22;16.15;;;;;;;-0.39;100.00;103323.22;5049719;28;20025;-76
2024/01/12 03:55:08;;;;;;;25.67;13.68;;;;;;;-0.39;100.00;103317.97;5049579;28;20072;-77
2024/01/12 03:57:34;;;;;;;29.20;12.18;;;;;;;-0.40;100.00;103318.03;5049645;28;20040;-76
2024/01/12 04:00:00;;;;;;;34.28;14.40;;;;;;;-0.43;100.00;103318.16;5048386;28;20029;-76
2024/01/12 04:02:25;;;;;;;32.65;14.70;;;;;;;-0.47;100.00;103307.81;5048338;28;20120;-76
2024/01/12 04:04:50;;;;;;;29.45;13.07;;;;;;;-0.40;100.00;103312.78;5048799;28;20160;-76
2024/01/12 04:07:18;;;;;;;28.85;13.85;;;;;;;-0.40;100.00;103305.75;5048643;28;20036;-76
2024/01/12 04:09:43;;;;;;;31.67;15.02;;;;;;;-0.44;100.00;103301.59;5047621;28;20448;-76
2024/01/12 04:12:09;;;;;;;27.30;13.70;;;;;;;-0.38;100.00;103322.28;5047400;28;20124;-76
2024/01/12 04:14:34;;;;;;;30.00;14.60;;;;;;;-0.44;100.00;103301.59;5046493;28;20932;-76
2024/01/12 04:17:00;;;;;;;29.33;15.15;;;;;;;-0.43;100.00;103302.44;5048262;28;20365;-76
2024/01/12 04:19:25;;;;;;;33.40;15.95;;;;;;;-0.38;100.00;103314.44;5048632;28;20090;-77
2024/01/12 04:21:50;;;;;;;30.40;13.82;;;;;;;-0.39;100.00;103317.09;5048584;28;20402;-76
2024/01/12 04:24:16;;;;;;;29.60;15.23;;;;;;;-0.39;100.00;103324.97;5048541;28;20047;-77
2024/01/12 04:26:42;;;;;;;28.52;16.08;;;;;;;-0.41;100.00;103321.56;5048398;28;20021;-76
2024/01/12 04:29:07;;;;;;;31.98;14.30;;;;;;;-0.44;100.00;103319.94;5048621;28;20024;-76
2024/01/12 04:31:33;;;;;;;30.77;14.30;;;;;;;-0.45;100.00;103326.94;5048440;28;20407;-76
2024/01/12 04:33:58;;;;;;;30.23;14.80;;;;;;;-0.42;100.00;103322.47;5046974;28;20037;-76
2024/01/12 04:36:23;;;;;;;37.58;15.20;;;;;;;-0.46;100.00;103317.38;5047055;28;20037;-76
2024/01/12 04:38:49;;;;;;;29.98;13.88;;;;;;;-0.42;100.00;103325.09;5048510;28;20036;-76
2024/01/12 04:41:14;;;;;;;26.83;13.65;;;;;;;-0.41;100.00;103321.56;5048376;28;21070;-76
2024/01/12 04:43:39;;;;;;;28.25;12.57;;;;;;;-0.45;100.00;103313.84;5048328;28;20476;-76
2024/01/12 04:46:05;;;;;;;30.95;14.57;;;;;;;-0.47;100.00;103304.34;5046913;28;20091;-76
2024/01/12 04:48:30;;;;;;;27.67;13.68;;;;;;;-0.37;100.00;103320.50;5048223;28;20035;-76
2024/01/12 04:50:56;;;;;;;31.75;14.40;;;;;;;-0.40;100.00;103315.41;5048211;28;20052;-76
2024/01/12 04:53:21;;;;;;;29.42;15.98;;;;;;;-0.41;100.00;103308.47;5048328;28;20029;-76
2024/01/12 04:55:47;;;;;;;29.17;13.68;;;;;;;-0.38;100.00;103322.28;5046863;28;20025;-76
2024/01/12 04:58:12;;;;;;;29.23;15.27;;;;;;;-0.38;100.00;103318.81;5047926;28;20164;-76
2024/01/12 05:00:37;;;;;;;35.03;15.95;;;;;;;-0.39;100.00;103317.97;5048174;28;20025;-76
2024/01/12 05:03:03;;;;;;;33.30;15.55;;;;;;;-0.46;100.00;103301.63;4992448;28;1086937;-76
2024/01/12 05:05:29;;;;;;;30.80;14.23;;;;;;;-0.35;100.00;103311.66;5049008;28;20515;-76
2024/01/12 05:07:54;;;;;;;33.97;15.75;;;;;;;-0.34;100.00;103300.28;5049085;28;20377;-77
2024/01/12 05:10:19;;;;;;;34.45;16.63;;;;;;;-0.35;100.00;103306.41;5048863;28;20106;-76
2024/01/12 05:12:45;;;;;;;28.15;13.18;;;;;;;-0.34;100.00;103299.41;5047204;28;20029;-77
2024/01/12 05:15:10;;;;;;;32.25;15.07;;;;;;;-0.36;100.00;103296.88;5048823;28;20112;-76
2024/01/12 05:17:35;;;;;;;30.13;13.60;;;;;;;-0.33;100.00;103306.38;5047538;28;20059;-76
2024/01/12 05:20:06;;;;;;;32.35;15.95;;;;;;;-0.36;100.00;103290.78;5047670;28;20545;-76
2024/01/12 05:22:35;;;;;;;33.67;17.33;;;;;;;-0.30;100.00;103290.50;5048927;28;20035;-76
2024/01/12 05:25:02;;;;;;;29.30;15.35;;;;;;;-0.31;100.00;103292.28;5047515;28;20079;-76
2024/01/12 05:27:28;;;;;;;32.03;16.38;;;;;;;-0.31;100.00;103291.44;5051241;28;20033;-76
2024/01/12 05:29:53;;;;;;;33.35;14.52;;;;;;;-0.30;100.00;103291.34;5052342;28;20036;-76
2024/01/12 05:32:18;;;;;;;25.70;14.23;;;;;;;-0.32;100.00;103292.34;5052315;28;20075;-76
2024/01/12 05:34:44;;;;;;;33.83;16.95;;;;;;;-0.29;100.00;103294.81;5052220;28;20029;-76
2024/01/12 05:37:09;;;;;;;28.83;15.68;;;;;;;-0.29;100.00;103295.69;5052230;28;20455;-77
2024/01/12 05:39:34;;;;;;;33.40;14.35;;;;;;;-0.29;100.00;103300.06;5052147;28;20096;-77
2024/01/12 05:42:00;;;;;;;32.15;14.50;;;;;;;-0.28;100.00;103307.03;5051955;28;20075;-76
2024/01/12 05:44:25;;;;;;;30.95;12.50;;;;;;;-0.28;100.00;103314.91;5052012;28;20044;-77
2024/01/12 05:46:50;;;;;;;28.73;13.35;;;;;;;-0.35;100.00;103292.47;5052219;28;20033;-74
2024/01/12 05:49:16;;;;;;;39.00;15.85;;;;;;;-0.27;100.00;103306.09;5051992;28;20035;-74
2024/01/12 05:51:41;;;;;;;33.55;15.23;;;;;;;-0.29;100.00;103314.06;5050745;28;20075;-74
2024/01/12 05:54:06;;;;;;;32.88;16.15;;;;;;;-0.27;100.00;103309.56;5051873;28;20029;-74
2024/01/12 05:56:32;;;;;;;35.03;15.98;;;;;;;-0.26;100.00;103318.31;5051910;28;20060;-74
2024/01/12 05:58:57;;;;;;;34.72;14.98;;;;;;;-0.23;100.00;103316.41;5051748;28;20036;-73
2024/01/12 06:01:22;;;;;;;36.58;17.38;;;;;;;-0.20;100.00;103325.91;5051545;28;20029;-74
2024/01/12 06:03:48;;;;;;;24.50;12.57;;;;;;;-0.19;100.00;103319.72;5051588;28;20600;-74
2024/01/12 06:06:13;;;;;;;30.70;15.35;;;;;;;-0.17;100.00;103311.81;5051450;28;20459;-74
2024/01/12 06:08:39;;;;;;;33.58;15.38;;;;;;;-0.16;100.00;103316.97;5051494;28;20027;-74
2024/01/12 06:11:04;;;;;;;27.92;13.07;;;;;;;-0.16;100.00;103310.88;5051390;28;20439;-74
2024/01/12 06:13:30;;;;;;;29.65;15.35;;;;;;;-0.15;100.00;103316.06;5051569;28;20033;-74
2024/01/12 06:15:55;;;;;;;30.65;16.42;;;;;;;-0.16;100.00;103319.59;5050118;28;20029;-74
2024/01/12 06:18:21;;;;;;;30.50;14.10;;;;;;;-0.14;100.00;103330.88;5051427;28;20037;-74
2024/01/12 06:20:47;;;;;;;34.08;18.10;;;;;;;-0.18;100.00;103315.34;5051310;28;20029;-74
2024/01/12 06:23:13;;;;;;;33.90;16.20;;;;;;;-0.18;100.00;103325.81;5051296;28;20025;-74
2024/01/12 06:25:39;;;;;;;31.80;13.75;;;;;;;-0.17;100.00;103325.78;5051054;28;20052;-74
2024/01/12 06:28:04;;;;;;;33.78;16.27;;;;;;;-0.16;100.00;103322.22;5051328;28;20032;-74
2024/01/12 06:30:31;;;;;;;31.85;15.52;;;;;;;-0.14;100.00;103324.78;5033224;28;20037;-74
2024/01/12 06:32:56;;;;;;;28.42;13.60;;;;;;;-0.14;100.00;103316.94;5051311;28;20415;-74
2024/01/12 06:35:22;;;;;;;27.60;13.52;;;;;;;-0.05;100.00;103324.41;5051090;28;20021;-74
2024/01/12 06:37:47;;;;;;;37.08;15.88;;;;;;;-0.05;100.00;103324.41;5049916;28;20025;-74
2024/01/12 06:40:13;;;;;;;30.67;14.60;;;;;;;-0.07;100.00;103332.34;5033014;28;20090;-74
2024/01/12 06:42:38;;;;;;;31.10;13.80;;;;;;;-0.03;100.00;103340.91;5049683;28;20033;-74
2024/01/12 06:45:07;;;;;;;21.73;12.05;;;;;;;-0.08;100.00;103324.53;5050904;28;20526;-74
2024/01/12 06:47:33;;;;;;;33.63;15.25;;;;;;;0.01;100.00;103346.91;5051096;28;20049;-74
2024/01/12 06:49:59;;;;;;;28.85;12.30;;;;;;;-0.05;100.00;103330.50;5050688;28;20083;-74
2024/01/12 06:52:24;;;;;;;24.63;13.27;;;;;;;-0.12;100.00;103310.69;5050719;28;20029;-74
2024/01/12 06:54:49;;;;;;;25.13;13.73;;;;;;;0.01;100.00;103329.38;5050688;28;20048;-74
2024/01/12 06:57:15;;;;;;;27.42;13.00;;;;;;;0.02;100.00;103322.34;5050401;28;20047;-74
2024/01/12 06:59:40;;;;;;;29.00;12.52;;;;;;;0.03;100.00;103335.44;5050644;28;20530;-74
2024/01/12 07:02:07;;;;;;;24.17;14.80;;;;;;;-0.01;100.00;103323.34;5050615;28;20028;-74
2024/01/12 07:04:32;;;;;;;29.75;13.55;;;;;;;0.02;100.00;103327.59;5050446;28;20485;-74
2024/01/12 07:06:58;;;;;;;27.48;13.05;;;;;;;0.06;100.00;103324.78;5049122;28;20116;-74
2024/01/12 07:09:23;;;;;;;28.08;14.30;;;;;;;0.06;100.00;103322.16;5050538;28;20087;-74
2024/01/12 07:11:49;;;;;;;37.97;15.02;;;;;;;0.09;100.00;103324.66;5050155;28;20086;-74
2024/01/12 07:14:14;;;;;;;30.08;13.43;;;;;;;0.08;100.00;103316.84;5050131;28;20035;-74
2024/01/12 07:16:40;;;;;;;32.88;15.50;;;;;;;0.07;100.00;103308.13;5050247;28;20025;-74
2024/01/12 07:19:09;;;;;;;40.40;13.63;;;;;;;0.10;100.00;103313.22;5050055;28;20032;-74
2024/01/12 07:21:34;;;;;;;27.65;14.18;;;;;;;0.12;100.00;103316.63;5050111;28;20036;-74
2024/01/12 07:24:01;;;;;;;29.70;12.38;;;;;;;0.16;100.00;103312.13;5050053;28;20033;-74
2024/01/12 07:26:26;;;;;;;25.92;11.88;;;;;;;0.12;100.00;103310.53;5050095;28;20033;-74
2024/01/12 07:28:51;;;;;;;25.52;11.18;;;;;;;0.17;100.00;103308.56;5049996;28;20480;-74
2024/01/12 07:31:17;;;;;;;28.67;13.43;;;;;;;0.21;100.00;103300.50;5050200;28;20029;-74
2024/01/12 07:33:43;;;;;;;27.98;12.85;;;;;;;0.21;100.00;103305.75;5049920;28;20469;-74
2024/01/12 07:36:08;;;;;;;23.85;13.50;;;;;;;0.27;100.00;103315.13;5049999;28;20480;-74
2024/01/12 07:38:34;;;;;;;26.42;12.65;;;;;;;0.30;100.00;103314.13;5049769;28;20036;-73
2024/01/12 07:40:59;;;;;;;26.65;12.30;;;;;;;0.30;100.00;103320.22;5049733;28;20056;-74
2024/01/12 07:43:27;;;;;;;38.22;15.82;;;;;;;0.33;100.00;103314.00;5031497;28;20064;-74
2024/01/12 07:45:52;;;;;;;29.92;13.15;;;;;;;0.34;100.00;103315.69;5049900;28;20059;-74
2024/01/12 07:48:18;;;;;;;25.17;11.65;;;;;;;0.31;100.00;103310.56;5049276;28;20469;-74
2024/01/12 07:50:43;;;;;;;25.35;10.60;;;;;;;0.37;100.00;103307.69;5048481;28;20078;-74
2024/01/12 07:53:09;;;;;;;30.70;12.77;;;;;;;0.37;100.00;103310.31;5048235;28;20032;-74
2024/01/12 07:55:34;;;;;;;26.42;12.65;;;;;;;0.38;100.00;103299.72;5048827;28;20037;-74
2024/01/12 07:57:59;;;;;;;29.83;13.63;;;;;;;0.37;100.00;103303.28;5047863;28;20025;-74
2024/01/12 08:00:25;;;;;;;29.33;12.07;;;;;;;0.37;100.00;103305.06;5047712;28;20036;-74
2024/01/12 08:02:52;;;;;;;23.95;12.20;;;;;;;0.39;100.00;103311.06;5049476;28;20032;-76
2024/01/12 08:05:19;;;;;;;20.70;11.40;;;;;;;0.41;100.00;103306.63;5049175;28;20451;-73
2024/01/12 08:07:44;;;;;;;30.15;13.52;;;;;;;0.42;100.00;103308.34;5048685;28;20023;-73
2024/01/12 08:10:09;;;;;;;22.38;11.40;;;;;;;0.43;100.00;103310.88;5048308;28;20025;-74
2024/01/12 08:12:35;;;;;;;36.25;13.05;;;;;;;0.46;100.00;103311.66;5048163;28;20033;-74
2024/01/12 08:15:00;;;;;;;31.10;12.57;;;;;;;0.48;100.00;103317.72;5048025;28;20025;-74
2024/01/12 08:17:26;;;;;;;27.02;13.85;;;;;;;0.42;100.00;103303.09;5049053;28;20029;-73
2024/01/12 08:19:51;;;;;;;24.73;11.75;;;;;;;0.53;100.00;103318.34;5048963;28;20404;-74
2024/01/12 08:22:16;;;;;;;29.92;12.38;;;;;;;0.51;100.00;103314.94;5049898;28;20032;-73
2024/01/12 08:24:42;;;;;;;28.25;11.93;;;;;;;0.54;100.00;103314.78;5048012;28;20070;-69
2024/01/12 08:27:07;;;;;;;25.63;12.80;;;;;;;0.55;100.00;103313.84;5047110;28;20068;-73
2024/01/12 08:29:33;;;;;;;30.65;13.82;;;;;;;0.56;100.00;103310.31;5047302;28;20041;-73
2024/01/12 08:31:58;;;;;;;27.35;12.20;;;;;;;0.61;100.00;103317.06;5047241;28;20029;-75
2024/01/12 08:34:24;;;;;;;24.70;11.88;;;;;;;0.65;100.00;103328.28;5047246;28;20500;-74
2024/01/12 08:36:50;;;;;;;28.17;13.23;;;;;;;0.69;100.00;103329.00;5046967;28;20033;-73
2024/01/12 08:39:16;;;;;;;27.67;12.75;;;;;;;0.69;100.00;103321.97;5047136;28;21451;-74
2024/01/12 08:41:41;;;;;;;27.55;13.45;;;;;;;0.73;100.00;103326.13;5047075;28;20039;-74
2024/01/12 08:44:07;;;;;;;25.92;11.60;;;;;;;0.76;100.00;103323.41;5047073;28;20119;-75
2024/01/12 08:46:32;;;;;;;24.00;10.20;;;;;;;0.75;100.00;103316.41;5047079;28;20061;-74
2024/01/12 08:48:58;;;;;;;25.80;11.05;;;;;;;0.75;100.00;103311.16;5047012;28;20029;-74
2024/01/12 08:51:24;;;;;;;23.13;11.13;;;;;;;0.87;100.00;103330.78;5046960;28;20040;-74
2024/01/12 08:53:49;;;;;;;28.95;12.32;;;;;;;0.83;100.00;103319.53;5046761;28;20029;-74
2024/01/12 08:56:15;;;;;;;23.13;10.55;;;;;;;0.92;100.00;103330.53;5045493;28;20033;-75
2024/01/12 08:58:40;;;;;;;25.83;11.90;;;;;;;0.93;100.00;103325.22;5046962;28;20033;-76
2024/01/12 09:01:06;;;;;;;28.30;12.23;;;;;;;0.98;100.00;103325.00;5045449;28;20061;-74
2024/01/12 09:03:31;;;;;;;23.23;10.60;;;;;;;0.94;100.00;103313.78;5050490;28;20053;-74
2024/01/12 09:05:57;;;;;;;24.88;11.55;;;;;;;1.05;100.00;103321.16;5049336;28;20107;-76
2024/01/12 09:08:22;;;;;;;32.05;14.38;;;;;;;1.10;100.00;103321.78;5050137;28;20548;-76
2024/01/12 09:10:47;;;;;;;27.55;11.38;;;;;;;1.12;100.00;103317.31;5050363;28;20505;-76
2024/01/12 09:13:14;;;;;;;28.13;12.68;;;;;;;1.16;100.00;103324.13;5049416;28;20481;-74
2024/01/12 09:15:39;;;;;;;25.05;10.68;;;;;;;1.20;100.00;103309.03;5050301;28;20090;-76
2024/01/12 09:18:06;;;;;;;59.58;12.27;;;;;;;1.25;100.00;103315.78;5050154;28;20029;-77
2024/01/12 09:20:35;;;;;;;23.88;10.82;;;;;;;1.25;100.00;103304.41;5050578;28;20091;-76
2024/01/12 09:23:00;;;;;;;26.55;14.07;;;;;;;1.28;100.00;103317.41;5050378;28;20699;-76
2024/01/12 09:25:26;;;;;;;24.23;11.43;;;;;;;1.30;100.00;103324.28;5048852;28;20044;-77
2024/01/12 09:27:52;;;;;;;26.52;13.13;;;;;;;1.31;100.00;103325.16;5050483;28;20021;-76
2024/01/12 09:30:18;;;;;;;37.67;14.25;;;;;;;1.35;100.00;103334.59;5048547;28;20052;-74
2024/01/12 09:32:44;;;;;;;29.77;12.77;;;;;;;1.38;100.00;103320.44;5050483;28;20094;-77
2024/01/12 09:35:09;;;;;;;24.55;10.98;;;;;;;1.43;100.00;103321.91;5049926;28;20033;-76
2024/01/12 09:37:35;;;;;;;28.05;12.65;;;;;;;1.46;100.00;103315.66;5049970;28;20028;-74
2024/01/12 09:40:00;;;;;;;33.08;17.38;;;;;;;1.54;100.00;103316.13;5050424;28;20071;-73
2024/01/12 09:42:31;;;;;;;32.20;16.02;;;;;;;1.56;100.00;103309.00;5049978;28;20029;-75
2024/01/12 09:44:57;;;;;;;32.83;14.47;;;;;;;1.61;100.00;103311.41;5049389;28;20029;-75
2024/01/12 09:47:22;;;;;;;29.48;16.08;;;;;;;1.58;100.00;103285.28;5050354;28;20036;-75
2024/01/12 09:49:50;;;;;;;34.60;13.30;;;;;;;1.73;100.00;103303.75;5050023;28;20071;-74
2024/01/12 09:52:15;;;;;;;30.92;14.20;;;;;;;1.72;100.00;103302.03;5049855;28;20036;-73
2024/01/12 09:54:41;;;;;;;31.73;14.23;;;;;;;1.78;100.00;103314.03;5049350;28;20025;-74
2024/01/12 09:57:07;;;;;;;32.78;14.63;;;;;;;1.73;100.00;103301.13;5049745;28;20041;-73
2024/01/12 09:59:35;;;;;;;33.85;16.33;;;;;;;1.85;100.00;103311.94;5051216;28;20029;-73
2024/01/12 10:02:01;;;;;;;31.73;13.13;;;;;;;1.85;100.00;103302.25;5051681;28;20028;-73
2024/01/12 10:04:26;;;;;;;25.17;12.32;;;;;;;1.80;100.00;103301.66;5051423;28;20049;-73
2024/01/12 10:06:52;;;;;;;26.42;12.05;;;;;;;1.86;100.00;103311.00;5050054;28;20495;-73
2024/01/12 10:09:17;;;;;;;25.75;12.50;;;;;;;1.85;100.00;103309.31;5051501;28;20119;-72
2024/01/12 10:11:43;;;;;;;31.95;11.57;;;;;;;1.85;100.00;103304.91;5050071;28;20439;-72
2024/01/12 10:14:08;;;;;;;29.05;12.63;;;;;;;1.88;100.00;103304.72;5050642;28;20043;-73
2024/01/12 10:16:33;;;;;;;28.70;13.57;;;;;;;1.92;100.00;103319.44;5049540;28;20029;-72
2024/01/12 10:18:59;;;;;;;29.85;13.63;;;;;;;1.99;100.00;103330.50;5048843;28;20032;-70
2024/01/12 10:21:25;;;;;;;29.83;13.15;;;;;;;2.02;100.00;103324.22;5051039;28;20470;-70
2024/01/12 10:24:06;;;;;;;25.83;11.68;;;;;;;2.02;100.00;103321.59;5051216;28;20091;-70
2024/01/12 10:26:31;;;;;;;25.55;11.88;;;;;;;2.04;100.00;103319.72;5051339;28;20033;-70
2024/01/12 10:29:03;;;;;;;35.55;13.48;;;;;;;2.03;100.00;103316.25;5051179;28;20029;-70
2024/01/12 10:31:29;;;;;;;23.17;10.80;;;;;;;2.07;100.00;103314.31;5051082;28;20060;-71
2024/01/12 10:34:00;;;;;;;31.33;12.93;;;;;;;2.10;100.00;103308.91;5050982;28;20037;-70
2024/01/12 10:36:28;;;;;;;34.78;13.95;;;;;;;2.18;100.00;103311.97;5051100;28;20100;-70
2024/01/12 10:38:55;;;;;;;24.60;12.13;;;;;;;2.22;100.00;103295.06;5050745;28;20464;-70
2024/01/12 10:41:24;;;;;;;24.55;11.50;;;;;;;2.24;100.00;103297.63;5050844;28;20100;-70
2024/01/12 10:43:54;;;;;;;29.23;11.68;;;;;;;2.26;100.00;103296.63;5050938;28;20033;-70
2024/01/12 10:46:44;;;;;;;28.95;11.20;;;;;;;2.31;100.00;103299.03;5050598;28;20028;-70
2024/01/12 10:49:20;;;;;;;31.33;12.40;;;;;;;2.33;100.00;103294.50;5050649;28;20116;-70
2024/01/12 10:52:04;;;;;;;28.17;11.13;;;;;;;2.35;100.00;103301.38;5050851;28;20388;-70
2024/01/12 10:55:03;;;;;;;50.95;13.00;;;;;;;2.37;100.00;103301.31;5050377;28;20124;-70
2024/01/12 10:57:30;;;;;;;29.50;11.82;;;;;;;2.35;100.00;103285.59;5050739;28;20029;-70
2024/01/12 10:59:57;;;;;;;22.17;10.63;;;;;;;2.36;100.00;103291.72;5050380;28;20112;-70